Time;durP1;ratioP1;P1;durP2;ratioP2;P2;SDS_P1;SDS_P2;PMS_P1;PMS_P2;Temp;Humidity;BMP_temperature;BMP_pressure;BME280_temperature;BME280_humidity;BME280_pressure;Samples;Min_cycle;Max_cycle;Signal;HPM_P1;HPM_P2
2022/07/24 00:02:24;;;;;;;6.40;5.03;;;15.80;99.90;;;;;;5015403;28;20137;-79
2022/07/24 00:04:53;;;;;;;6.88;4.75;;;15.70;99.90;;;;;;4999890;28;20454;-79
2022/07/24 00:07:19;;;;;;;6.30;5.30;;;15.70;99.90;;;;;;5002022;28;20493;-79
2022/07/24 00:09:44;;;;;;;6.38;5.78;;;15.70;99.90;;;;;;5005761;28;20049;-79
2022/07/24 00:12:10;;;;;;;6.80;4.97;;;15.70;99.90;;;;;;4979960;28;20042;-79
2022/07/24 00:14:36;;;;;;;5.97;5.38;;;15.70;99.90;;;;;;4998405;28;20060;-79
2022/07/24 00:17:02;;;;;;;6.40;5.78;;;15.70;99.90;;;;;;5013000;28;20078;-79
2022/07/24 00:19:28;;;;;;;6.50;5.90;;;15.70;99.90;;;;;;5000330;28;20121;-79
2022/07/24 00:21:54;;;;;;;6.97;6.28;;;15.70;99.90;;;;;;5000086;28;20461;-79
2022/07/24 00:24:28;;;;;;;6.28;5.68;;;15.60;99.90;;;;;;5000330;28;20045;-79
2022/07/24 00:26:54;;;;;;;7.50;6.47;;;15.60;99.90;;;;;;5001492;28;20041;-79
2022/07/24 00:29:20;;;;;;;7.25;5.82;;;15.60;99.90;;;;;;4977796;28;20053;-79
2022/07/24 00:31:46;;;;;;;7.10;6.40;;;15.60;99.90;;;;;;5017265;28;20049;-79
2022/07/24 00:34:11;;;;;;;6.63;5.90;;;15.60;99.90;;;;;;4994472;28;20050;-79
2022/07/24 00:36:37;;;;;;;7.03;5.95;;;15.60;99.90;;;;;;4996072;28;20459;-79
2022/07/24 00:39:03;;;;;;;7.68;6.53;;;15.60;99.90;;;;;;5001431;28;20049;-79
2022/07/24 00:41:29;;;;;;;6.53;5.93;;;15.60;99.90;;;;;;5005547;28;20408;-79
2022/07/24 00:44:13;;;;;;;9.03;7.37;;;15.50;99.90;;;;;;5018271;28;20522;-79
2022/07/24 00:46:41;;;;;;;7.50;6.80;;;15.60;99.90;;;;;;5030139;28;20472;-79
2022/07/24 00:49:09;;;;;;;7.82;7.07;;;15.50;99.90;;;;;;5018426;28;20045;-78
2022/07/24 00:51:36;;;;;;;7.25;6.55;;;15.50;99.90;;;;;;4996507;28;20059;-78
2022/07/24 00:54:05;;;;;;;7.60;6.90;;;15.50;99.90;;;;;;4990003;28;20030;-78
2022/07/24 00:56:31;;;;;;;8.02;7.22;;;15.50;99.90;;;;;;5016194;28;20038;-78
2022/07/24 00:58:59;;;;;;;7.90;6.88;;;15.60;99.90;;;;;;5017613;28;20057;-78
2022/07/24 01:01:24;;;;;;;10.52;8.15;;;15.50;99.90;;;;;;4998111;28;20049;-78
2022/07/24 01:03:50;;;;;;;8.68;7.40;;;15.50;99.90;;;;;;4999853;28;20048;-78
2022/07/24 01:06:16;;;;;;;9.23;8.43;;;15.50;99.90;;;;;;5020586;28;20504;-78
2022/07/24 01:08:43;;;;;;;8.48;7.68;;;15.50;99.90;;;;;;4995264;28;20049;-78
2022/07/24 01:11:09;;;;;;;8.80;7.88;;;15.50;99.90;;;;;;4990532;28;20033;-82
2022/07/24 01:13:36;;;;;;;8.68;7.88;;;15.50;99.90;;;;;;5018374;28;20049;-82
2022/07/24 01:16:02;;;;;;;10.50;8.38;;;15.50;99.90;;;;;;4984105;28;20400;-82
2022/07/24 01:18:28;;;;;;;8.18;7.40;;;15.50;99.90;;;;;;4982375;28;20053;-78
2022/07/24 01:20:55;;;;;;;8.65;7.72;;;15.50;99.90;;;;;;5004910;28;20033;-78
2022/07/24 01:23:22;;;;;;;9.77;8.88;;;15.50;99.90;;;;;;5016732;28;20046;-78
2022/07/24 01:25:48;;;;;;;9.10;8.23;;;15.40;99.90;;;;;;5000610;28;20777;-82
2022/07/24 01:28:14;;;;;;;9.00;8.20;;;15.40;99.90;;;;;;5005851;28;20045;-82
2022/07/24 01:30:40;;;;;;;9.95;8.98;;;15.40;99.90;;;;;;4994619;28;20042;-83
2022/07/24 01:33:06;;;;;;;9.48;8.68;;;15.40;99.90;;;;;;5003174;28;20049;-82
2022/07/24 01:35:32;;;;;;;10.63;9.73;;;15.40;99.90;;;;;;5009157;28;20042;-82
2022/07/24 01:37:58;;;;;;;9.85;8.85;;;15.40;99.90;;;;;;5010680;28;20053;-78
2022/07/24 01:40:24;;;;;;;9.50;8.60;;;15.40;99.90;;;;;;4997026;28;20081;-78
2022/07/24 01:42:50;;;;;;;9.95;9.05;;;15.40;99.90;;;;;;5011207;28;20048;-78
2022/07/24 01:45:17;;;;;;;10.07;9.07;;;15.40;99.90;;;;;;4998970;28;20908;-78
2022/07/24 01:47:44;;;;;;;9.98;9.05;;;15.30;99.90;;;;;;4987017;28;20041;-79
2022/07/24 01:50:11;;;;;;;9.75;8.60;;;15.40;99.90;;;;;;5003664;28;20037;-78
2022/07/24 01:52:37;;;;;;;9.50;8.65;;;15.40;99.90;;;;;;4989476;28;20130;-78
2022/07/24 01:55:03;;;;;;;9.32;8.52;;;15.30;99.90;;;;;;4993874;28;20303;-79
2022/07/24 01:57:29;;;;;;;11.23;9.38;;;15.30;99.90;;;;;;5001677;28;20049;-79
2022/07/24 01:59:55;;;;;;;10.63;9.52;;;15.30;99.90;;;;;;4989268;28;20107;-79
2022/07/24 02:02:20;;;;;;;10.00;8.98;;;15.30;99.90;;;;;;5022406;28;20559;-79
2022/07/24 02:04:47;;;;;;;9.60;8.77;;;15.30;99.90;;;;;;5018266;28;20132;-79
2022/07/24 02:07:12;;;;;;;10.75;9.65;;;15.30;99.90;;;;;;4993113;28;20232;-78
2022/07/24 02:09:38;;;;;;;11.88;10.80;;;15.30;99.90;;;;;;5024347;28;20148;-79
2022/07/24 02:12:04;;;;;;;10.65;9.65;;;15.30;99.90;;;;;;4992903;28;20115;-79
2022/07/24 02:14:30;;;;;;;12.52;10.75;;;15.30;99.90;;;;;;5005626;28;20050;-79
2022/07/24 02:16:56;;;;;;;10.68;9.68;;;15.30;99.90;;;;;;4992556;28;20041;-78
2022/07/24 02:19:23;;;;;;;10.40;9.32;;;15.30;99.90;;;;;;5008195;28;20428;-78
2022/07/24 02:21:50;;;;;;;10.52;9.52;;;15.20;99.90;;;;;;5008359;28;20470;-79
2022/07/24 02:24:16;;;;;;;10.23;9.32;;;15.20;99.90;;;;;;5011412;28;20127;-79
2022/07/24 02:26:42;;;;;;;10.57;9.57;;;15.20;99.90;;;;;;4990671;28;20049;-78
2022/07/24 02:29:07;;;;;;;11.07;10.10;;;15.20;99.90;;;;;;4989434;28;20115;-78
2022/07/24 02:31:33;;;;;;;11.50;10.40;;;15.20;99.90;;;;;;4998987;28;20049;-79
2022/07/24 02:34:02;;;;;;;11.18;10.10;;;15.30;99.90;;;;;;4997861;28;20060;-79
2022/07/24 02:36:28;;;;;;;11.70;10.55;;;15.30;99.90;;;;;;5003386;28;20064;-78
2022/07/24 02:38:54;;;;;;;11.35;10.02;;;15.30;99.90;;;;;;5024027;28;20781;-78
2022/07/24 02:41:20;;;;;;;11.68;10.48;;;15.30;99.90;;;;;;5006916;28;20049;-79
2022/07/24 02:43:45;;;;;;;12.02;10.82;;;15.30;99.90;;;;;;5005718;28;20037;-78
2022/07/24 02:46:11;;;;;;;12.77;11.60;;;15.30;99.90;;;;;;4997603;28;20041;-79
2022/07/24 02:48:37;;;;;;;11.43;10.32;;;15.40;99.90;;;;;;4999759;28;20045;-78
2022/07/24 02:51:03;;;;;;;10.90;9.90;;;15.30;99.90;;;;;;4979853;28;20041;-78
2022/07/24 02:53:29;;;;;;;11.70;10.55;;;15.30;99.90;;;;;;5018103;28;20060;-78
2022/07/24 02:55:55;;;;;;;11.82;10.77;;;15.30;99.90;;;;;;5015004;28;20045;-78
2022/07/24 02:58:21;;;;;;;11.23;10.13;;;15.40;99.90;;;;;;4999449;28;20107;-79
2022/07/24 03:00:47;;;;;;;12.48;11.27;;;15.30;99.90;;;;;;5006372;28;20443;-79
2022/07/24 03:03:13;;;;;;;12.02;10.98;;;15.30;99.90;;;;;;4995278;28;20182;-78
2022/07/24 03:05:39;;;;;;;12.18;11.02;;;15.40;99.90;;;;;;4995501;28;20145;-78
2022/07/24 03:08:05;;;;;;;12.98;11.88;;;15.30;99.90;;;;;;4996778;28;20042;-78
2022/07/24 03:10:34;;;;;;;13.27;12.07;;;15.30;99.90;;;;;;4979499;28;20112;-78
2022/07/24 03:12:59;;;;;;;11.63;10.55;;;15.30;99.90;;;;;;4999309;28;20052;-78
2022/07/24 03:15:25;;;;;;;11.93;10.55;;;15.40;99.90;;;;;;4991892;28;20046;-78
2022/07/24 03:17:56;;;;;;;12.45;11.23;;;15.30;99.90;;;;;;4989530;28;20056;-79
2022/07/24 03:20:28;;;;;;;12.90;11.57;;;15.40;99.90;;;;;;5001822;28;20053;-78
2022/07/24 03:22:54;;;;;;;12.15;11.05;;;15.30;99.90;;;;;;5002597;28;20085;-79
2022/07/24 03:25:21;;;;;;;12.75;11.60;;;15.30;99.90;;;;;;4992780;28;20493;-79
2022/07/24 03:27:48;;;;;;;11.57;10.45;;;15.30;99.90;;;;;;5017561;28;20042;-79
2022/07/24 03:30:14;;;;;;;12.88;11.68;;;15.30;99.90;;;;;;4999372;28;20394;-78
2022/07/24 03:32:40;;;;;;;11.90;10.90;;;15.20;99.90;;;;;;5001789;28;20407;-79
2022/07/24 03:35:06;;;;;;;12.65;11.45;;;15.30;99.90;;;;;;4998700;28;20050;-78
2022/07/24 03:37:32;;;;;;;11.70;10.70;;;15.30;99.90;;;;;;4987940;28;20128;-78
2022/07/24 03:39:58;;;;;;;11.75;10.75;;;15.30;99.90;;;;;;5012739;28;20121;-78
2022/07/24 03:42:24;;;;;;;12.88;11.57;;;15.30;99.90;;;;;;4998896;28;20382;-79
2022/07/24 03:44:50;;;;;;;12.82;11.63;;;15.30;99.90;;;;;;4988770;28;20100;-78
2022/07/24 03:47:16;;;;;;;11.75;10.63;;;15.30;99.90;;;;;;5013743;28;20070;-78
2022/07/24 03:49:41;;;;;;;11.80;10.80;;;15.30;99.90;;;;;;5002692;28;20052;-78
2022/07/24 03:52:07;;;;;;;11.82;10.70;;;15.30;99.90;;;;;;4997270;28;20030;-78
2022/07/24 03:54:33;;;;;;;12.13;10.93;;;15.30;99.90;;;;;;5010642;28;20053;-79
2022/07/24 03:56:59;;;;;;;12.55;11.35;;;15.30;99.90;;;;;;5012531;28;20494;-79
2022/07/24 03:59:26;;;;;;;11.95;10.60;;;15.30;99.90;;;;;;5005520;28;20076;-78
2022/07/24 04:01:52;;;;;;;12.05;10.85;;;15.30;99.90;;;;;;4979449;28;20415;-79
2022/07/24 04:04:18;;;;;;;11.98;10.55;;;15.30;99.90;;;;;;5001151;28;20050;-79
2022/07/24 04:06:44;;;;;;;11.43;10.32;;;15.30;99.90;;;;;;5004921;28;20800;-79
2022/07/24 04:09:10;;;;;;;11.20;10.10;;;15.30;99.90;;;;;;4978759;28;20042;-80
2022/07/24 04:11:36;;;;;;;11.57;10.35;;;15.30;99.90;;;;;;5002224;28;20057;-79
2022/07/24 04:14:02;;;;;;;11.70;10.60;;;15.30;99.90;;;;;;5026845;28;20048;-79
2022/07/24 04:16:28;;;;;;;11.80;10.75;;;15.30;99.90;;;;;;5003577;28;20156;-80
2022/07/24 04:18:53;;;;;;;11.82;10.82;;;15.30;99.90;;;;;;5006877;28;20045;-79
2022/07/24 04:21:19;;;;;;;11.13;10.00;;;15.30;99.90;;;;;;5004815;28;20054;-79
2022/07/24 04:23:45;;;;;;;10.57;9.57;;;15.30;99.90;;;;;;4999736;28;20502;-79
2022/07/24 04:26:14;;;;;;;11.85;10.75;;;15.40;99.90;;;;;;5016245;28;20393;-79
2022/07/24 04:28:41;;;;;;;10.65;9.70;;;15.30;99.90;;;;;;4986187;28;20157;-80
2022/07/24 04:31:07;;;;;;;10.85;9.85;;;15.40;99.90;;;;;;5000845;28;20045;-79
2022/07/24 04:33:33;;;;;;;10.75;9.77;;;15.40;99.90;;;;;;5000524;28;20514;-79
2022/07/24 04:35:59;;;;;;;10.77;9.73;;;15.40;99.90;;;;;;5014539;28;20065;-79
2022/07/24 04:38:28;;;;;;;11.68;10.57;;;15.40;99.90;;;;;;5004773;28;20052;-79
2022/07/24 04:40:53;;;;;;;11.05;10.00;;;15.40;99.90;;;;;;4999124;28;20088;-79
2022/07/24 04:43:19;;;;;;;11.80;10.70;;;15.50;99.90;;;;;;5003429;28;20089;-79
2022/07/24 04:45:45;;;;;;;11.80;10.73;;;15.50;99.90;;;;;;4989259;28;20393;-79
2022/07/24 04:48:11;;;;;;;11.70;10.70;;;15.50;99.90;;;;;;4990339;28;20072;-79
2022/07/24 04:50:37;;;;;;;11.43;10.23;;;15.50;99.90;;;;;;5006098;28;20045;-79
2022/07/24 04:53:03;;;;;;;10.77;9.88;;;15.50;99.90;;;;;;5003992;28;20038;-80
2022/07/24 04:55:28;;;;;;;10.65;9.75;;;15.60;99.90;;;;;;4998298;28;20038;-80
2022/07/24 04:57:54;;;;;;;11.18;9.93;;;15.60;99.90;;;;;;5013938;28;20053;-80
2022/07/24 05:00:20;;;;;;;14.07;11.10;;;15.60;99.90;;;;;;4980085;28;20046;-79
2022/07/24 05:02:46;;;;;;;11.02;10.02;;;15.60;99.90;;;;;;5000773;28;20283;-79
2022/07/24 05:05:12;;;;;;;10.75;9.85;;;15.70;99.90;;;;;;4995951;28;20397;-79
2022/07/24 05:07:37;;;;;;;10.93;9.98;;;15.70;99.90;;;;;;4989014;28;20042;-80
2022/07/24 05:10:05;;;;;;;11.20;10.10;;;15.80;99.90;;;;;;5020417;28;20042;-80
2022/07/24 05:12:30;;;;;;;10.82;9.85;;;15.80;99.90;;;;;;5028776;28;20061;-80
2022/07/24 05:14:56;;;;;;;10.73;9.63;;;15.80;99.90;;;;;;5017900;28;20037;-79
2022/07/24 05:17:22;;;;;;;11.32;10.25;;;15.90;99.90;;;;;;4977694;28;20492;-79
2022/07/24 05:19:48;;;;;;;11.55;10.35;;;15.90;99.90;;;;;;5003281;28;20038;-79
2022/07/24 05:22:14;;;;;;;11.45;10.35;;;15.90;99.90;;;;;;5004640;28;20041;-79
2022/07/24 05:24:40;;;;;;;10.90;9.80;;;16.00;99.90;;;;;;5000127;28;20137;-80
2022/07/24 05:27:06;;;;;;;10.55;9.55;;;16.00;99.90;;;;;;4999975;28;20060;-80
2022/07/24 05:29:32;;;;;;;12.30;11.02;;;16.10;99.90;;;;;;5016096;28;20045;-79
2022/07/24 05:31:58;;;;;;;11.90;10.80;;;16.10;99.90;;;;;;4999531;28;20072;-81
2022/07/24 05:34:24;;;;;;;11.82;10.70;;;16.20;99.90;;;;;;5010616;28;20137;-80
2022/07/24 05:36:50;;;;;;;11.25;10.18;;;16.20;99.90;;;;;;5013615;28;20054;-81
2022/07/24 05:39:17;;;;;;;12.43;11.10;;;16.40;99.90;;;;;;4991870;28;20041;-80
2022/07/24 05:41:42;;;;;;;12.73;11.45;;;16.40;99.90;;;;;;4999510;28;20611;-80
2022/07/24 05:44:08;;;;;;;12.00;10.90;;;16.50;99.90;;;;;;4982874;28;20527;-80
2022/07/24 05:46:34;;;;;;;12.55;11.30;;;16.50;99.90;;;;;;5000000;28;20836;-81
2022/07/24 05:49:00;;;;;;;12.50;11.20;;;16.60;99.90;;;;;;4981211;28;20521;-80
2022/07/24 05:51:29;;;;;;;12.73;11.52;;;16.60;99.90;;;;;;5000496;28;20051;-80
2022/07/24 05:53:55;;;;;;;12.40;11.20;;;16.70;99.90;;;;;;5002909;28;20052;-80
2022/07/24 05:56:21;;;;;;;12.70;11.48;;;16.80;99.90;;;;;;4999745;28;20284;-80
2022/07/24 05:58:46;;;;;;;13.00;11.90;;;16.80;99.90;;;;;;4999242;28;20508;-80
2022/07/24 06:01:12;;;;;;;13.43;12.05;;;16.90;99.90;;;;;;5013169;28;20136;-80
2022/07/24 06:03:38;;;;;;;12.60;11.35;;;16.90;99.90;;;;;;4993175;28;20464;-80
2022/07/24 06:06:05;;;;;;;14.07;12.70;;;16.90;99.90;;;;;;4976318;28;20151;-80
2022/07/24 06:08:31;;;;;;;13.73;12.48;;;16.90;99.90;;;;;;5006348;28;20068;-80
2022/07/24 06:10:57;;;;;;;14.07;12.88;;;17.00;99.90;;;;;;5014096;28;20504;-80
2022/07/24 06:13:26;;;;;;;14.35;13.05;;;17.00;99.90;;;;;;5005824;28;20547;-81
2022/07/24 06:15:51;;;;;;;14.20;12.80;;;17.10;99.90;;;;;;5005195;28;20096;-80
2022/07/24 06:18:17;;;;;;;16.00;14.40;;;17.20;99.90;;;;;;5016804;28;20179;-80
2022/07/24 06:20:43;;;;;;;16.17;14.77;;;17.40;99.90;;;;;;5006575;28;20056;-84
2022/07/24 06:23:09;;;;;;;15.05;13.60;;;17.40;99.90;;;;;;4992216;28;20056;-84
2022/07/24 06:25:35;;;;;;;16.73;15.10;;;17.50;99.90;;;;;;4972726;28;20072;-84
2022/07/24 06:28:00;;;;;;;17.30;15.60;;;17.70;99.90;;;;;;4987011;28;20041;-84
2022/07/24 06:30:28;;;;;;;17.45;15.95;;;17.80;99.90;;;;;;5003016;28;20057;-83
2022/07/24 06:32:56;;;;;;;17.45;15.63;;;17.90;99.90;;;;;;4988211;28;20186;-84
2022/07/24 06:35:22;;;;;;;17.63;16.02;;;18.10;99.90;;;;;;5001207;28;20046;-83
2022/07/24 06:37:48;;;;;;;17.27;15.65;;;18.20;99.90;;;;;;5006125;28;20083;-84
2022/07/24 06:40:18;;;;;;;17.60;15.90;;;18.30;99.90;;;;;;5007849;28;20072;-84
2022/07/24 06:42:45;;;;;;;18.05;16.25;;;18.40;99.90;;;;;;5002596;28;20041;-84
2022/07/24 06:45:11;;;;;;;18.27;16.52;;;18.40;99.90;;;;;;5020138;28;20060;-84
2022/07/24 06:47:38;;;;;;;19.00;17.20;;;18.60;99.90;;;;;;5008209;28;20087;-83
2022/07/24 06:50:04;;;;;;;19.00;17.10;;;18.60;99.90;;;;;;5019169;28;20133;-84
2022/07/24 06:52:31;;;;;;;18.67;16.95;;;18.80;99.90;;;;;;5002658;28;20050;-84
2022/07/24 06:54:57;;;;;;;18.75;16.85;;;18.90;99.90;;;;;;4991571;28;20049;-81
2022/07/24 06:57:25;;;;;;;19.58;17.70;;;19.00;99.90;;;;;;5002459;28;20123;-81
2022/07/24 06:59:52;;;;;;;19.55;17.58;;;19.10;99.90;;;;;;5000343;28;20076;-81
2022/07/24 07:02:19;;;;;;;20.15;16.70;;;19.20;99.90;;;;;;5011945;28;20488;-81
2022/07/24 07:04:45;;;;;;;19.05;17.20;;;19.40;99.90;;;;;;5022818;28;20042;-81
2022/07/24 07:07:10;;;;;;;18.15;16.42;;;19.50;99.90;;;;;;5019112;28;20041;-80
2022/07/24 07:09:36;;;;;;;17.58;15.88;;;19.60;99.90;;;;;;4987684;28;20045;-81
2022/07/24 07:12:05;;;;;;;18.73;16.92;;;19.70;99.90;;;;;;5019223;28;20549;-80
2022/07/24 07:14:31;;;;;;;18.27;16.58;;;19.80;99.90;;;;;;5006061;28;20049;-80
2022/07/24 07:16:57;;;;;;;17.73;15.75;;;20.00;99.90;;;;;;5002998;28;20043;-80
2022/07/24 07:19:23;;;;;;;17.63;15.93;;;20.10;99.90;;;;;;5002961;28;20076;-80
2022/07/24 07:21:49;;;;;;;17.63;15.65;;;20.10;99.90;;;;;;5011402;28;20509;-81
2022/07/24 07:24:15;;;;;;;17.25;15.10;;;20.30;99.90;;;;;;5016549;28;20046;-80
2022/07/24 07:26:40;;;;;;;15.25;13.70;;;20.40;99.90;;;;;;4986421;28;20596;-81
2022/07/24 07:29:06;;;;;;;15.30;13.70;;;20.50;99.90;;;;;;5027005;28;20053;-81
2022/07/24 07:31:32;;;;;;;14.63;13.23;;;20.60;99.90;;;;;;4999752;28;20037;-81
2022/07/24 07:33:58;;;;;;;13.65;12.25;;;20.80;99.90;;;;;;5006695;28;20061;-81
2022/07/24 07:36:25;;;;;;;14.50;12.98;;;21.00;99.90;;;;;;5002164;28;20559;-81
2022/07/24 07:38:51;;;;;;;13.68;12.13;;;21.20;99.90;;;;;;5012023;28;20042;-81
2022/07/24 07:41:19;;;;;;;13.70;12.38;;;21.30;99.90;;;;;;5007042;28;20129;-79
2022/07/24 07:43:49;;;;;;;14.20;12.52;;;21.40;99.90;;;;;;5001491;28;20048;-81
2022/07/24 07:46:14;;;;;;;;;;;21.60;99.90;;;;;;4988662;28;20049;-81
2022/07/24 07:48:41;;;;;;;14.60;12.68;;;21.80;99.90;;;;;;5002460;28;19925;-80
2022/07/24 07:51:07;;;;;;;12.68;11.45;;;21.90;99.90;;;;;;4990961;28;20056;-81
2022/07/24 07:53:33;;;;;;;11.15;9.88;;;22.00;99.90;;;;;;5019714;28;20049;-81
2022/07/24 07:55:59;;;;;;;12.55;10.02;;;22.00;99.90;;;;;;5017870;28;20072;-82
2022/07/24 07:58:26;;;;;;;9.93;8.75;;;22.00;99.90;;;;;;5014833;28;20130;-81
2022/07/24 08:00:55;;;;;;;12.18;8.98;;;22.00;99.90;;;;;;5019134;28;20050;-81
2022/07/24 08:03:21;;;;;;;9.20;8.30;;;22.20;99.90;;;;;;4997927;28;20049;-82
2022/07/24 08:05:47;;;;;;;8.52;7.60;;;22.30;99.90;;;;;;5004147;28;20860;-81
2022/07/24 08:08:14;;;;;;;9.57;7.85;;;22.40;99.90;;;;;;4988990;28;20117;-81
2022/07/24 08:10:45;;;;;;;8.45;6.53;;;22.50;99.90;;;;;;5012728;28;20052;-81
2022/07/24 08:13:12;;;;;;;7.18;6.07;;;22.70;99.90;;;;;;5009045;28;20567;-81
2022/07/24 08:15:40;;;;;;;7.35;5.93;;;22.90;99.90;;;;;;5015349;28;20132;-81
2022/07/24 08:18:15;;;;;;;6.13;4.78;;;23.10;99.90;;;;;;4991727;28;20042;-80
2022/07/24 08:20:43;;;;;;;5.95;4.93;;;23.30;99.90;;;;;;5001675;28;20095;-80
2022/07/24 08:23:09;;;;;;;6.00;4.93;;;23.20;99.90;;;;;;5011355;28;20650;-81
2022/07/24 08:25:35;;;;;;;6.35;5.20;;;23.20;99.90;;;;;;5002099;28;20056;-80
2022/07/24 08:28:04;;;;;;;5.77;4.57;;;23.10;99.90;;;;;;4985777;28;20045;-81
2022/07/24 08:30:36;;;;;;;5.72;4.18;;;23.20;99.90;;;;;;5003956;28;20384;-81
2022/07/24 08:33:05;;;;;;;5.93;4.78;;;23.30;99.90;;;;;;5016415;28;20430;-80
2022/07/24 08:35:34;;;;;;;7.03;4.50;;;23.60;99.90;;;;;;4982947;28;20103;-81
2022/07/24 08:38:00;;;;;;;6.95;4.50;;;23.90;99.90;;;;;;5002604;28;20085;-80
2022/07/24 08:40:35;;;;;;;5.90;4.45;;;24.00;99.90;;;;;;5001536;28;20477;-82
2022/07/24 08:43:02;;;;;;;5.43;4.40;;;24.10;99.90;;;;;;5004154;28;20041;-81
2022/07/24 08:45:28;;;;;;;5.25;4.22;;;24.00;99.90;;;;;;5013344;28;20042;-81
2022/07/24 08:47:56;;;;;;;5.78;4.30;;;24.00;99.90;;;;;;5015490;28;20037;-80
2022/07/24 08:50:25;;;;;;;5.45;4.63;;;24.10;99.90;;;;;;5015842;28;20526;-80
2022/07/24 08:52:51;;;;;;;7.60;4.03;;;24.10;99.90;;;;;;4987283;28;20597;-79
2022/07/24 08:55:17;;;;;;;5.57;3.90;;;24.10;99.90;;;;;;5003588;28;20046;-83
2022/07/24 08:57:43;;;;;;;7.55;4.15;;;24.20;99.90;;;;;;4980736;28;20068;-82
2022/07/24 09:00:09;;;;;;;5.15;3.83;;;24.30;99.90;;;;;;4993722;28;20041;-83
2022/07/24 09:02:54;;;;;;;5.53;3.90;;;24.40;99.90;;;;;;4997408;28;20084;-81
2022/07/24 09:05:20;;;;;;;5.45;4.35;;;24.60;99.90;;;;;;4985409;28;20611;-79
2022/07/24 09:07:46;;;;;;;5.50;3.72;;;24.70;99.80;;;;;;4997947;28;20041;-82
2022/07/24 09:10:17;;;;;;;5.72;3.85;;;24.80;98.90;;;;;;5007236;28;20056;-81
2022/07/24 09:12:45;;;;;;;7.20;3.42;;;24.70;98.70;;;;;;5001877;28;20219;-80
2022/07/24 09:15:29;;;;;;;4.82;3.47;;;24.70;99.90;;;;;;4999543;28;20037;-80
2022/07/24 09:17:59;;;;;;;6.07;3.75;;;24.70;98.60;;;;;;5017745;28;20073;-80
2022/07/24 09:20:30;;;;;;;5.97;3.70;;;24.90;97.70;;;;;;5019630;28;20179;-80
2022/07/24 09:22:59;;;;;;;4.97;3.05;;;25.00;97.00;;;;;;4994458;28;20042;-80
2022/07/24 09:25:26;;;;;;;;;;;25.00;96.10;;;;;;5004370;28;20040;-77
2022/07/24 09:27:56;;;;;;;6.43;3.13;;;25.00;95.80;;;;;;5004371;28;20284;-82
2022/07/24 09:30:28;;;;;;;4.70;2.88;;;24.90;93.80;;;;;;5018731;28;20052;-81
2022/07/24 09:32:57;;;;;;;5.82;3.30;;;24.90;96.10;;;;;;4992310;28;20088;-79
2022/07/24 09:35:34;;;;;;;4.55;3.25;;;25.10;96.80;;;;;;4998457;28;20064;-80
2022/07/24 09:38:02;;;;;;;4.57;3.33;;;25.10;95.30;;;;;;5009526;28;20104;-79
2022/07/24 09:40:37;;;;;;;5.80;3.50;;;25.00;95.20;;;;;;4998123;28;20050;-80
2022/07/24 09:43:38;;;;;;;4.80;3.22;;;24.90;95.80;;;;;;5000414;28;21461;-81
2022/07/24 09:46:05;;;;;;;5.32;2.95;;;25.10;95.50;;;;;;4985535;28;20121;-81
2022/07/24 09:48:38;;;;;;;7.05;3.30;;;25.10;96.10;;;;;;4999338;28;20448;-81
2022/07/24 09:51:06;;;;;;;3.80;2.70;;;25.30;95.70;;;;;;4996728;28;20045;-81
2022/07/24 09:53:33;;;;;;;5.72;3.08;;;25.50;95.30;;;;;;5010224;28;20469;-75
2022/07/24 09:56:14;;;;;;;4.97;3.10;;;25.70;94.00;;;;;;5001727;28;20093;-81
2022/07/24 09:58:43;;;;;;;4.75;3.10;;;25.70;93.60;;;;;;5028165;28;20459;-80
2022/07/24 10:01:10;;;;;;;3.90;2.55;;;25.80;93.90;;;;;;5001305;28;20049;-80
2022/07/24 10:03:40;;;;;;;4.15;2.92;;;25.90;94.30;;;;;;4981639;28;20150;-80
2022/07/24 10:06:10;;;;;;;;;;;26.10;95.20;;;;;;5017498;28;20037;-80
2022/07/24 10:08:38;;;;;;;5.45;2.92;;;26.30;94.10;;;;;;5036791;28;19921;-80
2022/07/24 10:11:04;;;;;;;6.22;3.08;;;26.40;92.40;;;;;;5004093;28;20045;-80
2022/07/24 10:13:30;;;;;;;5.10;3.00;;;26.50;91.60;;;;;;5016267;28;20145;-80
2022/07/24 10:16:14;;;;;;;4.38;3.08;;;26.50;90.60;;;;;;5002730;28;20549;-80
2022/07/24 10:18:40;;;;;;;4.20;2.95;;;26.50;90.80;;;;;;4999188;28;20037;-81
2022/07/24 10:21:10;;;;;;;4.10;2.88;;;26.50;90.40;;;;;;5020931;28;20180;-81
2022/07/24 10:24:05;;;;;;;4.90;2.50;;;26.60;91.20;;;;;;5001863;28;20049;-80
2022/07/24 10:26:59;;;;;;;5.28;2.90;;;26.80;89.30;;;;;;5015515;28;20046;-80
2022/07/24 10:29:25;;;;;;;5.15;2.70;;;26.90;89.70;;;;;;5017281;28;20107;-80
2022/07/24 10:31:58;;;;;;;5.07;2.80;;;27.00;89.50;;;;;;5015591;28;20060;-80
2022/07/24 10:34:26;;;;;;;4.93;2.88;;;27.30;85.80;;;;;;4998238;28;20089;-80
2022/07/24 10:37:27;;;;;;;4.40;2.97;;;27.30;85.20;;;;;;4993841;28;20057;-79
2022/07/24 10:40:12;;;;;;;4.80;3.03;;;27.30;81.50;;;;;;5012601;28;20049;-81
2022/07/24 10:43:05;;;;;;;4.93;3.30;;;27.20;87.80;;;;;;5013621;28;20049;-80
2022/07/24 10:45:35;;;;;;;3.88;2.78;;;27.30;88.30;;;;;;5029696;28;20052;-80
2022/07/24 10:48:20;;;;;;;4.95;2.85;;;27.50;87.40;;;;;;5003477;28;20096;-79
2022/07/24 10:51:01;;;;;;;3.60;2.83;;;27.50;82.60;;;;;;5020127;28;20049;-77
2022/07/24 10:53:38;;;;;;;3.80;2.63;;;27.50;82.80;;;;;;5003522;28;20045;-80
2022/07/24 10:56:26;;;;;;;3.95;2.83;;;27.40;83.30;;;;;;4997695;28;20798;-80
2022/07/24 10:59:02;;;;;;;3.95;2.58;;;27.50;84.50;;;;;;5013356;28;20045;-80
2022/07/24 11:01:44;;;;;;;3.72;2.67;;;27.50;84.30;;;;;;5006549;28;20050;-79
2022/07/24 11:04:24;;;;;;;4.95;2.90;;;27.50;83.60;;;;;;4989323;28;20061;-79
2022/07/24 11:06:53;;;;;;;4.65;2.70;;;27.60;79.10;;;;;;5012327;28;20552;-78
2022/07/24 11:09:21;;;;;;;11.00;2.90;;;27.60;79.20;;;;;;5018210;28;20065;-76
2022/07/24 11:11:53;;;;;;;3.23;2.63;;;27.60;75.60;;;;;;4997526;28;20140;-79
2022/07/24 11:14:49;;;;;;;6.53;2.92;;;27.60;82.30;;;;;;4996966;28;20323;-79
2022/07/24 11:17:43;;;;;;;3.83;2.83;;;27.80;84.00;;;;;;4997701;28;20049;-80
2022/07/24 11:20:17;;;;;;;3.58;2.53;;;27.80;77.30;;;;;;5009583;28;20493;-79
2022/07/24 11:22:54;;;;;;;3.78;2.53;;;27.70;76.80;;;;;;5011193;28;20068;-80
2022/07/24 11:25:30;;;;;;;3.67;2.67;;;27.70;77.90;;;;;;5012460;28;20132;-81
2022/07/24 11:27:58;;;;;;;4.20;2.55;;;27.70;76.70;;;;;;5011902;28;20552;-80
2022/07/24 11:30:30;;;;;;;3.33;2.40;;;27.70;78.00;;;;;;5020243;28;20038;-80
2022/07/24 11:32:57;;;;;;;3.92;2.50;;;27.70;82.00;;;;;;5020951;28;20049;-79
2022/07/24 11:35:34;;;;;;;4.80;2.55;;;27.80;80.90;;;;;;4992230;28;20053;-79
2022/07/24 11:38:03;;;;;;;6.10;2.40;;;27.90;75.60;;;;;;5006383;28;20049;-78
2022/07/24 11:40:29;;;;;;;4.63;2.60;;;27.80;76.10;;;;;;5016984;28;20037;-80
2022/07/24 11:42:57;;;;;;;4.72;2.45;;;27.80;78.70;;;;;;4998244;28;20049;-79
2022/07/24 11:45:26;;;;;;;4.95;2.40;;;27.80;77.90;;;;;;5002360;28;20045;-79
2022/07/24 11:47:55;;;;;;;4.75;2.55;;;27.90;76.20;;;;;;5014815;28;20459;-79
2022/07/24 11:50:26;;;;;;;4.43;3.10;;;27.80;72.00;;;;;;5016730;28;20045;-80
2022/07/24 11:52:56;;;;;;;5.43;2.63;;;27.80;74.40;;;;;;5027742;28;20038;-80
2022/07/24 11:55:27;;;;;;;3.03;2.38;;;27.80;76.00;;;;;;4983868;28;20038;-79
2022/07/24 11:57:55;;;;;;;4.82;2.70;;;27.90;75.90;;;;;;5012788;28;20100;-80
2022/07/24 12:00:28;;;;;;;6.32;3.42;;;28.00;76.40;;;;;;5003035;28;20133;-80
2022/07/24 12:02:57;;;;;;;5.78;2.30;;;28.10;76.50;;;;;;4979525;28;20079;-79
2022/07/24 12:05:33;;;;;;;4.47;2.78;;;28.20;74.40;;;;;;5019397;28;20455;-79
2022/07/24 12:08:04;;;;;;;4.47;2.70;;;28.20;70.10;;;;;;5026912;28;20034;-79
2022/07/24 12:10:30;;;;;;;4.30;2.40;;;28.10;70.50;;;;;;5002265;28;20048;-82
2022/07/24 12:12:57;;;;;;;3.92;2.58;;;28.00;71.30;;;;;;4999057;28;20044;-82
2022/07/24 12:15:25;;;;;;;4.60;2.55;;;27.90;71.10;;;;;;5016475;28;20037;-83
2022/07/24 12:18:00;;;;;;;4.47;2.78;;;27.90;72.10;;;;;;4980845;28;20571;-83
2022/07/24 12:20:34;;;;;;;5.00;2.80;;;27.90;73.00;;;;;;5012381;28;20037;-83
2022/07/24 12:23:06;;;;;;;5.03;2.83;;;27.90;72.60;;;;;;5007483;28;20483;-82
2022/07/24 12:25:32;;;;;;;4.47;2.58;;;27.80;71.60;;;;;;4994248;28;20447;-83
2022/07/24 12:28:05;;;;;;;4.13;2.45;;;27.90;75.50;;;;;;5017114;28;20480;-82
2022/07/24 12:30:45;;;;;;;4.05;3.13;;;28.00;77.70;;;;;;5018586;28;20519;-81
2022/07/24 12:33:14;;;;;;;4.50;2.92;;;28.00;75.80;;;;;;4996916;28;20042;-80
2022/07/24 12:35:58;;;;;;;4.78;2.70;;;28.00;75.40;;;;;;5016216;28;20436;-83
2022/07/24 12:38:49;;;;;;;5.07;2.72;;;28.10;72.30;;;;;;5002093;28;20046;-82
2022/07/24 12:41:17;;;;;;;5.80;2.78;;;28.10;71.80;;;;;;5017543;28;20072;-81
2022/07/24 12:43:58;;;;;;;6.43;2.97;;;28.20;71.80;;;;;;4997363;28;20350;-83
2022/07/24 12:46:51;;;;;;;4.60;2.70;;;28.30;71.00;;;;;;5006616;28;20107;-83